Time,TemperatureF,DewpointF,PressureIn,WindDirection,WindDirectionDegrees,WindSpeedMPH,WindSpeedGustMPH,Humidity,HourlyPrecipIn,Conditions,Clouds,dailyrainin,SoftwareType,DateUTC
2013-02-16 00:09:00,53.2,21.8,29.97,NW,315,1.0,5.0,29,0.00,CLR,,0.00,WeatherDisplay:10.37,2013-02-16 08:09:00,
2013-02-16 00:14:00,53.2,22.5,29.94,NW,315,2.0,5.0,30,0.00,CLR,,0.00,WeatherDisplay:10.37,2013-02-16 08:14:00,
2013-02-16 00:19:00,53.2,22.6,29.94,NW,315,0.0,3.0,30,0.00,CLR,,0.00,WeatherDisplay:10.37,2013-02-16 08:19:00,
2013-02-16 00:24:00,52.9,22.2,29.94,NW,315,0.0,3.0,30,0.00,CLR,,0.00,WeatherDisplay:10.37,2013-02-16 08:24:00,
2013-02-16 00:29:00,52.5,21.9,29.97,NW,315,0.0,2.0,30,0.00,CLR,,0.00,WeatherDisplay:10.37,2013-02-16 08:29:00,
2013-02-16 00:34:00,51.5,21.0,29.97,NW,315,0.0,0.0,30,0.00,CLR,,0.00,WeatherDisplay:10.37,2013-02-16 08:34:00,
2013-02-16 00:39:00,51.6,21.2,29.97,NW,315,0.0,0.0,30,0.00,CLR,,0.00,WeatherDisplay:10.37,2013-02-16 08:39:00,
2013-02-16 00:44:00,51.6,21.9,29.94,NW,315,0.0,3.0,31,0.00,CLR,,0.00,WeatherDisplay:10.37,2013-02-16 08:44:00,
2013-02-16 00:49:00,51.3,21.6,29.94,NW,315,0.0,3.0,31,0.00,CLR,,0.00,WeatherDisplay:10.37,2013-02-16 08:49:00,
2013-02-16 00:54:00,50.8,22.0,29.94,NW,315,0.0,0.0,32,0.00,CLR,,0.00,WeatherDisplay:10.37,2013-02-16 08:54:00,
2013-02-16 00:59:00,50.6,21.8,29.97,NW,315,0.0,0.0,32,0.00,CLR,,0.00,WeatherDisplay:10.37,2013-02-16 08:59:00,
2013-02-16 01:04:00,50.5,21.7,29.97,NW,315,0.0,0.0,32,0.00,CLR,,0.00,WeatherDisplay:10.37,2013-02-16 09:04:00,
2013-02-16 01:09:00,51.1,22.2,29.97,NW,315,0.0,0.0,32,0.00,CLR,,0.00,WeatherDisplay:10.37,2013-02-16 09:09:00,
2013-02-16 01:14:00,51.1,22.2,29.94,NW,315,0.0,3.0,32,0.00,CLR,,0.00,WeatherDisplay:10.37,2013-02-16 09:14:00,
2013-02-16 01:19:00,51.1,22.2,29.94,NW,315,0.0,4.0,32,0.00,CLR,,0.00,WeatherDisplay:10.37,2013-02-16 09:19:00,
2013-02-16 01:24:00,51.1,22.2,29.94,NW,315,1.0,4.0,32,0.00,CLR,,0.00,WeatherDisplay:10.37,2013-02-16 09:24:00,
2013-02-16 01:29:00,51.0,22.9,29.94,NW,315,1.0,5.0,33,0.00,CLR,,0.00,WeatherDisplay:10.37,2013-02-16 09:29:00,
2013-02-16 01:34:00,51.1,22.9,29.94,NW,315,1.0,4.0,33,0.00,CLR,,0.00,WeatherDisplay:10.37,2013-02-16 09:34:00,
2013-02-16 01:39:00,51.2,23.1,29.94,NW,315,0.0,3.0,33,0.00,CLR,,0.00,WeatherDisplay:10.37,2013-02-16 09:39:00,
2013-02-16 01:44:00,51.1,22.9,29.94,NW,315,0.0,3.0,33,0.00,CLR,,0.00,WeatherDisplay:10.37,2013-02-16 09:44:00,
2013-02-16 01:49:00,50.9,23.5,29.94,NW,315,0.0,2.0,34,0.00,CLR,,0.00,WeatherDisplay:10.37,2013-02-16 09:49:00,
2013-02-16 01:54:00,50.7,23.3,29.94,NW,315,0.0,0.0,34,0.00,CLR,,0.00,WeatherDisplay:10.37,2013-02-16 09:54:00,
2013-02-16 01:59:00,50.7,24.0,29.94,NW,315,2.0,5.0,35,0.00,CLR,,0.00,WeatherDisplay:10.37,2013-02-16 09:59:00,
2013-02-16 02:04:00,51.0,24.3,29.94,NW,315,0.0,4.0,35,0.00,CLR,,0.00,WeatherDisplay:10.37,2013-02-16 10:04:00,
2013-02-16 02:09:00,51.0,24.9,29.94,NW,313,2.0,5.0,36,0.00,CLR,,0.00,WeatherDisplay:10.37,2013-02-16 10:09:00,
2013-02-16 02:14:00,51.3,25.2,29.94,NW,314,0.0,5.0,36,0.00,CLR,,0.00,WeatherDisplay:10.37,2013-02-16 10:14:00,
2013-02-16 02:19:00,51.1,25.0,29.94,NW,321,1.0,6.0,36,0.00,CLR,,0.00,WeatherDisplay:10.37,2013-02-16 10:19:00,
2013-02-16 02:24:00,50.7,24.7,29.94,NNW,329,0.0,5.0,36,0.00,CLR,,0.00,WeatherDisplay:10.37,2013-02-16 10:24:00,
2013-02-16 02:29:00,50.7,24.7,29.94,NNW,330,2.0,4.0,36,0.00,CLR,,0.00,WeatherDisplay:10.37,2013-02-16 10:29:00,
2013-02-16 02:34:00,50.6,24.6,29.94,NW,319,1.0,4.0,36,0.00,CLR,,0.00,WeatherDisplay:10.37,2013-02-16 10:34:00,
2013-02-16 02:39:00,50.7,24.7,29.94,NNW,330,2.0,5.0,36,0.00,CLR,,0.00,WeatherDisplay:10.37,2013-02-16 10:39:00,
2013-02-16 02:44:00,50.7,24.7,29.94,NNW,333,2.0,6.0,36,0.00,CLR,,0.00,WeatherDisplay:10.37,2013-02-16 10:44:00,
2013-02-16 02:49:00,51.1,25.0,29.94,NNW,329,2.0,5.0,36,0.00,CLR,,0.00,WeatherDisplay:10.37,2013-02-16 10:49:00,
2013-02-16 02:54:00,50.9,24.8,29.94,NNW,332,0.0,4.0,36,0.00,CLR,,0.00,WeatherDisplay:10.37,2013-02-16 10:54:00,
2013-02-16 03:04:00,50.0,24.1,29.94,NNW,338,0.0,3.0,36,0.00,CLR,,0.00,WeatherDisplay:10.37,2013-02-16 11:04:00,
2013-02-16 03:09:00,50.4,24.4,29.94,NNW,334,2.0,5.0,36,0.00,CLR,,0.00,WeatherDisplay:10.37,2013-02-16 11:09:00,
2013-02-16 03:14:00,50.3,24.3,29.94,NW,324,2.0,5.0,36,0.00,CLR,,0.00,WeatherDisplay:10.37,2013-02-16 11:14:00,
2013-02-16 03:19:00,50.4,24.4,29.94,NW,319,1.0,5.0,36,0.00,CLR,,0.00,WeatherDisplay:10.37,2013-02-16 11:19:00,
2013-02-16 03:24:00,50.2,24.2,29.94,NNW,334,1.0,5.0,36,0.00,CLR,,0.00,WeatherDisplay:10.37,2013-02-16 11:24:00,
2013-02-16 03:29:00,50.4,24.4,29.91,NNW,339,1.0,3.0,36,0.00,CLR,,0.00,WeatherDisplay:10.37,2013-02-16 11:29:00,
2013-02-16 03:34:00,50.5,24.5,29.91,NNW,347,3.0,5.0,36,0.00,CLR,,0.00,WeatherDisplay:10.37,2013-02-16 11:34:00,
2013-02-16 03:39:00,50.7,24.7,29.91,NNW,342,2.0,5.0,36,0.00,CLR,,0.00,WeatherDisplay:10.37,2013-02-16 11:39:00,
2013-02-16 03:44:00,50.7,24.7,29.91,NNW,343,3.0,6.0,36,0.00,CLR,,0.00,WeatherDisplay:10.37,2013-02-16 11:44:00,
2013-02-16 03:49:00,50.7,24.7,29.91,NNW,344,0.0,4.0,36,0.00,CLR,,0.00,WeatherDisplay:10.37,2013-02-16 11:49:00,
2013-02-16 03:54:00,50.5,24.5,29.91,NNW,332,1.0,5.0,36,0.00,CLR,,0.00,WeatherDisplay:10.37,2013-02-16 11:54:00,
2013-02-16 04:04:00,50.7,24.7,29.91,NNW,337,3.0,6.0,36,0.00,CLR,,0.00,WeatherDisplay:10.37,2013-02-16 12:04:00,
2013-02-16 04:09:00,50.7,24.7,29.91,NNW,339,3.0,5.0,36,0.00,CLR,,0.00,WeatherDisplay:10.37,2013-02-16 12:09:00,
2013-02-16 04:19:00,50.7,25.4,29.91,North,3,2.0,6.0,37,0.00,CLR,,0.00,WeatherDisplay:10.37,2013-02-16 12:19:00,
2013-02-16 04:29:00,50.4,25.0,29.91,North,1,1.0,5.0,37,0.00,CLR,,0.00,WeatherDisplay:10.37,2013-02-16 12:29:00,
2013-02-16 04:34:00,50.5,25.2,29.91,North,0,3.0,5.0,37,0.00,CLR,,0.00,WeatherDisplay:10.37,2013-02-16 12:34:00,
2013-02-16 04:39:00,50.7,25.4,29.91,North,358,3.0,7.0,37,0.00,CLR,,0.00,WeatherDisplay:10.37,2013-02-16 12:39:00,
2013-02-16 04:44:00,50.5,25.2,29.91,North,360,3.0,6.0,37,0.00,CLR,,0.00,WeatherDisplay:10.37,2013-02-16 12:44:00,
2013-02-16 04:49:00,50.2,24.9,29.91,NNW,344,0.0,5.0,37,0.00,CLR,,0.00,WeatherDisplay:10.37,2013-02-16 12:49:00,
2013-02-16 04:54:00,50.2,24.9,29.91,NNW,342,3.0,5.0,37,0.00,CLR,,0.00,WeatherDisplay:10.37,2013-02-16 12:54:00,
2013-02-16 04:59:00,50.0,24.7,29.91,NNW,346,2.0,5.0,37,0.00,CLR,,0.00,WeatherDisplay:10.37,2013-02-16 12:59:00,
2013-02-16 05:04:00,49.9,24.7,29.91,NNW,341,2.0,6.0,37,0.00,CLR,,0.00,WeatherDisplay:10.37,2013-02-16 13:04:00,
2013-02-16 05:09:00,49.8,24.6,29.91,North,349,1.0,5.0,37,0.00,CLR,,0.00,WeatherDisplay:10.37,2013-02-16 13:09:00,
2013-02-16 05:14:00,49.6,25.0,29.91,NNW,334,2.0,6.0,38,0.00,CLR,,0.00,WeatherDisplay:10.37,2013-02-16 13:14:00,
2013-02-16 05:19:00,49.5,24.9,29.91,NW,320,0.0,4.0,38,0.00,CLR,,0.00,WeatherDisplay:10.37,2013-02-16 13:19:00,
2013-02-16 05:24:00,49.5,24.9,29.91,NNW,342,0.0,3.0,38,0.00,CLR,,0.00,WeatherDisplay:10.37,2013-02-16 13:24:00,
2013-02-16 05:29:00,49.3,24.7,29.91,North,349,0.0,5.0,38,0.00,CLR,,0.00,WeatherDisplay:10.37,2013-02-16 13:29:00,
2013-02-16 05:34:00,49.3,24.7,29.91,NNW,339,1.0,5.0,38,0.00,CLR,,0.00,WeatherDisplay:10.37,2013-02-16 13:34:00,
2013-02-16 05:39:00,49.3,24.7,29.91,NNW,346,0.0,5.0,38,0.00,CLR,,0.00,WeatherDisplay:10.37,2013-02-16 13:39:00,
2013-02-16 05:44:00,48.9,25.0,29.91,North,357,0.0,2.0,39,0.00,CLR,,0.00,WeatherDisplay:10.37,2013-02-16 13:44:00,
2013-02-16 05:49:00,48.9,25.0,29.91,North,0,0.0,2.0,39,0.00,CLR,,0.00,WeatherDisplay:10.37,2013-02-16 13:49:00,
2013-02-16 05:54:00,48.7,24.9,29.91,North,0,0.0,3.0,39,0.00,CLR,,0.00,WeatherDisplay:10.37,2013-02-16 13:54:00,
2013-02-16 05:59:00,48.4,24.5,29.91,North,0,0.0,2.0,39,0.00,CLR,,0.00,WeatherDisplay:10.37,2013-02-16 13:59:00,
2013-02-16 06:04:00,48.4,24.5,29.91,North,0,0.0,0.0,39,0.00,CLR,,0.00,WeatherDisplay:10.37,2013-02-16 14:04:00,
2013-02-16 06:09:00,48.4,24.5,29.91,North,0,1.0,3.0,39,0.00,CLR,,0.00,WeatherDisplay:10.37,2013-02-16 14:09:00,
2013-02-16 06:19:00,48.6,25.3,29.91,North,353,1.0,3.0,40,0.00,CLR,,0.00,WeatherDisplay:10.37,2013-02-16 14:19:00,
2013-02-16 06:24:00,48.6,25.3,29.91,North,349,0.0,4.0,40,0.00,CLR,,0.00,WeatherDisplay:10.37,2013-02-16 14:24:00,
2013-02-16 06:29:00,48.6,25.3,29.91,NNW,338,0.0,3.0,40,0.00,CLR,,0.00,WeatherDisplay:10.37,2013-02-16 14:29:00,
2013-02-16 06:34:00,48.6,25.3,29.91,NNW,338,1.0,4.0,40,0.00,CLR,,0.00,WeatherDisplay:10.37,2013-02-16 14:34:00,
2013-02-16 06:39:00,48.4,25.1,29.91,NNW,338,1.0,4.0,40,0.00,CLR,,0.00,WeatherDisplay:10.37,2013-02-16 14:39:00,
2013-02-16 06:44:00,48.6,25.9,29.91,NNW,335,0.0,5.0,41,0.00,CLR,,0.00,WeatherDisplay:10.37,2013-02-16 14:44:00,
2013-02-16 06:49:00,48.3,25.7,29.91,NW,323,0.0,3.0,41,0.00,CLR,,0.00,WeatherDisplay:10.37,2013-02-16 14:49:00,
2013-02-16 06:54:00,48.4,25.7,29.91,NW,315,0.0,3.0,41,0.00,CLR,,0.00,WeatherDisplay:10.37,2013-02-16 14:54:00,
2013-02-16 06:59:00,48.6,26.0,29.91,NW,326,1.0,5.0,41,0.00,CLR,,0.00,WeatherDisplay:10.37,2013-02-16 14:59:00,
2013-02-16 07:04:00,48.6,25.9,29.91,NNW,337,1.0,3.0,41,0.00,CLR,,0.00,WeatherDisplay:10.37,2013-02-16 15:04:00,
2013-02-16 07:09:00,48.4,25.7,29.91,NNW,338,0.0,3.0,41,0.00,CLR,,0.00,WeatherDisplay:10.37,2013-02-16 15:09:00,
2013-02-16 07:14:00,48.6,25.9,29.91,NNW,338,1.0,5.0,41,0.00,CLR,,0.00,WeatherDisplay:10.37,2013-02-16 15:14:00,
2013-02-16 07:19:00,48.7,26.1,29.91,NNW,337,0.0,5.0,41,0.00,CLR,,0.00,WeatherDisplay:10.37,2013-02-16 15:19:00,
2013-02-16 07:24:00,49.1,26.4,29.91,NW,324,1.0,5.0,41,0.00,CLR,,0.00,WeatherDisplay:10.37,2013-02-16 15:24:00,
2013-02-16 07:29:00,49.3,26.5,29.91,NW,315,0.0,5.0,41,0.00,CLR,,0.00,WeatherDisplay:10.37,2013-02-16 15:29:00,
2013-02-16 07:34:00,49.5,26.7,29.91,NW,315,0.0,3.0,41,0.00,CLR,,0.00,WeatherDisplay:10.37,2013-02-16 15:34:00,
2013-02-16 07:39:00,49.6,26.9,29.91,NW,326,2.0,3.0,41,0.00,CLR,,0.00,WeatherDisplay:10.37,2013-02-16 15:39:00,
2013-02-16 07:44:00,50.2,26.8,29.91,NNW,335,0.0,3.0,40,0.00,CLR,,0.00,WeatherDisplay:10.37,2013-02-16 15:44:00,
2013-02-16 07:49:00,50.4,26.9,29.91,NNW,338,0.0,2.0,40,0.00,CLR,,0.00,WeatherDisplay:10.37,2013-02-16 15:49:00,
2013-02-16 07:54:00,50.5,27.1,29.91,NNW,338,0.0,3.0,40,0.00,CLR,,0.00,WeatherDisplay:10.37,2013-02-16 15:54:00,
2013-02-16 07:59:00,51.2,27.6,29.91,NNW,338,1.0,5.0,40,0.00,CLR,,0.00,WeatherDisplay:10.37,2013-02-16 15:59:00,
2013-02-16 08:04:00,51.6,27.4,29.91,NNW,338,2.0,3.0,39,0.00,CLR,,0.00,WeatherDisplay:10.37,2013-02-16 16:04:00,
2013-02-16 08:09:00,52.3,27.4,29.91,North,360,1.0,5.0,38,0.00,CLR,,0.00,WeatherDisplay:10.37,2013-02-16 16:09:00,
2013-02-16 08:14:00,52.5,27.6,29.91,North,10,1.0,5.0,38,0.00,CLR,,0.00,WeatherDisplay:10.37,2013-02-16 16:14:00,
2013-02-16 08:19:00,53.4,28.4,29.91,North,1,0.0,5.0,38,0.00,CLR,,0.00,WeatherDisplay:10.37,2013-02-16 16:19:00,
2013-02-16 08:24:00,53.9,28.2,29.91,North,2,0.0,4.0,37,0.00,CLR,,0.00,WeatherDisplay:10.37,2013-02-16 16:24:00,
2013-02-16 08:30:00,54.3,28.6,29.91,North,8,3.0,6.0,37,0.00,CLR,,0.00,WeatherDisplay:10.37,2013-02-16 16:30:00,
2013-02-16 08:39:00,55.1,28.6,29.91,North,4,2.0,3.0,36,0.00,CLR,,0.00,WeatherDisplay:10.37,2013-02-16 16:39:00,
2013-02-16 08:44:00,55.2,28.7,29.91,NNE,19,1.0,5.0,36,0.00,CLR,,0.00,WeatherDisplay:10.37,2013-02-16 16:44:00,
2013-02-16 08:49:00,55.6,28.3,29.91,NNE,22,1.0,3.0,35,0.00,CLR,,0.00,WeatherDisplay:10.37,2013-02-16 16:49:00,
2013-02-16 08:59:00,55.8,28.5,29.91,NE,39,2.0,4.0,35,0.00,CLR,,0.00,WeatherDisplay:10.37,2013-02-16 16:59:00,
2013-02-16 09:04:00,56.2,28.9,29.91,NE,37,0.0,3.0,35,0.00,CLR,,0.00,WeatherDisplay:10.37,2013-02-16 17:04:00,
2013-02-16 09:09:00,56.7,29.4,29.91,NE,45,1.0,4.0,35,0.00,CLR,,0.00,WeatherDisplay:10.37,2013-02-16 17:09:00,
2013-02-16 09:14:00,57.0,28.8,29.91,NE,45,0.0,4.0,34,0.00,CLR,,0.00,WeatherDisplay:10.37,2013-02-16 17:14:00,
2013-02-16 09:19:00,57.2,29.1,29.91,ENE,66,0.0,4.0,34,0.00,CLR,,0.00,WeatherDisplay:10.37,2013-02-16 17:19:00,
2013-02-16 09:24:00,57.4,29.2,29.91,NE,53,0.0,5.0,34,0.00,CLR,,0.00,WeatherDisplay:10.37,2013-02-16 17:24:00,
2013-02-16 09:29:00,57.7,28.0,29.91,NNE,29,3.0,6.0,32,0.00,CLR,,0.00,WeatherDisplay:10.37,2013-02-16 17:29:00,
2013-02-16 09:39:00,58.1,26.8,29.91,ESE,107,1.0,6.0,30,0.00,CLR,,0.00,WeatherDisplay:10.37,2013-02-16 17:39:00,
2013-02-16 09:44:00,58.1,26.8,29.94,ESE,110,3.0,6.0,30,0.00,CLR,,0.00,WeatherDisplay:10.37,2013-02-16 17:44:00,
2013-02-16 09:49:00,58.1,26.8,29.94,ESE,107,1.0,5.0,30,0.00,CLR,,0.00,WeatherDisplay:10.37,2013-02-16 17:49:00,
2013-02-16 09:59:00,58.5,27.1,29.91,East,97,2.0,5.0,30,0.00,CLR,,0.00,WeatherDisplay:10.37,2013-02-16 17:59:00,
2013-02-16 10:04:00,58.9,27.5,29.91,ESE,106,2.0,6.0,30,0.00,CLR,,0.00,WeatherDisplay:10.37,2013-02-16 18:04:00,
2013-02-16 10:14:00,60.4,27.1,29.91,East,98,2.0,6.0,28,0.00,CLR,,0.00,WeatherDisplay:10.37,2013-02-16 18:14:00,
2013-02-16 10:19:00,61.0,26.7,29.91,East,82,2.0,5.0,27,0.00,CLR,,0.00,WeatherDisplay:10.37,2013-02-16 18:19:00,
2013-02-16 10:29:00,61.1,26.0,29.91,East,97,3.0,6.0,26,0.00,CLR,,0.00,WeatherDisplay:10.37,2013-02-16 18:29:00,
2013-02-16 10:34:00,61.3,26.1,29.91,East,84,3.0,6.0,26,0.00,CLR,,0.00,WeatherDisplay:10.37,2013-02-16 18:34:00,
2013-02-16 10:39:00,61.0,25.8,29.91,East,86,3.0,5.0,26,0.00,CLR,,0.00,WeatherDisplay:10.37,2013-02-16 18:39:00,
2013-02-16 10:44:00,61.0,25.8,29.91,NE,49,5.0,6.0,26,0.00,CLR,,0.00,WeatherDisplay:10.37,2013-02-16 18:44:00,
2013-02-16 10:49:00,60.6,25.5,29.91,NE,34,2.0,6.0,26,0.00,CLR,,0.00,WeatherDisplay:10.37,2013-02-16 18:49:00,
2013-02-16 10:59:00,61.2,26.0,29.91,NE,43,3.0,6.0,26,0.00,CLR,,0.00,WeatherDisplay:10.37,2013-02-16 18:59:00,
2013-02-16 11:04:00,61.6,25.4,29.91,NE,51,2.0,6.0,25,0.00,CLR,,0.00,WeatherDisplay:10.37,2013-02-16 19:04:00,
2013-02-16 11:09:00,62.0,25.7,29.91,ENE,61,2.0,6.0,25,0.00,CLR,,0.00,WeatherDisplay:10.37,2013-02-16 19:09:00,
2013-02-16 11:14:00,62.5,25.2,29.91,NE,53,1.0,5.0,24,0.00,CLR,,0.00,WeatherDisplay:10.37,2013-02-16 19:14:00,
2013-02-16 11:19:00,62.2,25.9,29.91,ENE,65,3.0,6.0,25,0.00,CLR,,0.00,WeatherDisplay:10.37,2013-02-16 19:19:00,
2013-02-16 11:24:00,62.2,25.0,29.91,East,80,2.0,6.0,24,0.00,CLR,,0.00,WeatherDisplay:10.37,2013-02-16 19:24:00,
2013-02-16 11:29:00,62.4,25.1,29.91,East,82,1.0,5.0,24,0.00,CLR,,0.00,WeatherDisplay:10.37,2013-02-16 19:29:00,
2013-02-16 11:39:00,62.8,25.4,29.91,East,97,3.0,5.0,24,0.00,CLR,,0.00,WeatherDisplay:10.37,2013-02-16 19:39:00,
2013-02-16 11:44:00,63.0,25.6,29.91,ENE,65,3.0,5.0,24,0.00,CLR,,0.00,WeatherDisplay:10.37,2013-02-16 19:44:00,
2013-02-16 11:49:00,63.6,25.1,29.91,NE,46,1.0,5.0,23,0.00,CLR,,0.00,WeatherDisplay:10.37,2013-02-16 19:49:00,
2013-02-16 11:54:00,64.4,25.8,29.91,ENE,66,1.0,4.0,23,0.00,CLR,,0.00,WeatherDisplay:10.37,2013-02-16 19:54:00,
2013-02-16 11:59:00,64.7,26.0,29.91,NE,49,3.0,6.0,23,0.00,CLR,,0.00,WeatherDisplay:10.37,2013-02-16 19:59:00,
2013-02-16 12:04:00,65.2,26.4,29.91,ENE,69,3.0,6.0,23,0.00,CLR,,0.00,WeatherDisplay:10.37,2013-02-16 20:04:00,
2013-02-16 12:09:00,65.5,26.7,29.91,ENE,64,2.0,5.0,23,0.00,CLR,,0.00,WeatherDisplay:10.37,2013-02-16 20:09:00,
2013-02-16 12:14:00,65.5,26.7,29.91,ENE,60,5.0,6.0,23,0.00,CLR,,0.00,WeatherDisplay:10.37,2013-02-16 20:14:00,
2013-02-16 12:19:00,65.8,26.9,29.91,East,83,5.0,6.0,23,0.00,CLR,,0.00,WeatherDisplay:10.37,2013-02-16 20:19:00,
2013-02-16 12:24:00,65.9,27.0,29.91,ENE,74,2.0,6.0,23,0.00,CLR,,0.00,WeatherDisplay:10.37,2013-02-16 20:24:00,
2013-02-16 12:29:00,65.8,27.0,29.88,NE,44,2.0,6.0,23,0.00,CLR,,0.00,WeatherDisplay:10.37,2013-02-16 20:29:00,
2013-02-16 12:34:00,65.5,26.6,29.88,NE,51,3.0,6.0,23,0.00,CLR,,0.00,WeatherDisplay:10.37,2013-02-16 20:34:00,
2013-02-16 12:39:00,65.5,26.7,29.88,ENE,59,0.0,5.0,23,0.00,CLR,,0.00,WeatherDisplay:10.37,2013-02-16 20:39:00,
2013-02-16 12:44:00,65.9,25.9,29.88,NNE,27,3.0,6.0,22,0.00,CLR,,0.00,WeatherDisplay:10.37,2013-02-16 20:44:00,
2013-02-16 12:49:00,66.0,26.0,29.88,North,356,1.0,6.0,22,0.00,CLR,,0.00,WeatherDisplay:10.37,2013-02-16 20:49:00,
2013-02-16 12:54:00,66.0,26.0,29.88,North,1,2.0,6.0,22,0.00,CLR,,0.00,WeatherDisplay:10.37,2013-02-16 20:54:00,
2013-02-16 12:59:00,65.9,26.0,29.88,North,356,2.0,6.0,22,0.00,CLR,,0.00,WeatherDisplay:10.37,2013-02-16 20:59:00,
2013-02-16 13:09:00,66.2,26.2,29.88,NNW,348,3.0,6.0,22,0.00,CLR,,0.00,WeatherDisplay:10.37,2013-02-16 21:09:00,
2013-02-16 13:14:00,66.2,26.2,29.88,North,351,0.0,5.0,22,0.00,CLR,,0.00,WeatherDisplay:10.37,2013-02-16 21:14:00,
2013-02-16 13:19:00,66.0,26.0,29.88,NW,319,3.0,6.0,22,0.00,CLR,,0.00,WeatherDisplay:10.37,2013-02-16 21:19:00,
2013-02-16 13:24:00,66.2,26.2,29.88,NNW,333,2.0,7.0,22,0.00,CLR,,0.00,WeatherDisplay:10.37,2013-02-16 21:24:00,
2013-02-16 13:29:00,66.2,26.2,29.85,North,355,1.0,6.0,22,0.00,CLR,,0.00,WeatherDisplay:10.37,2013-02-16 21:29:00,
2013-02-16 13:34:00,66.4,26.3,29.85,NNW,340,2.0,5.0,22,0.00,CLR,,0.00,WeatherDisplay:10.37,2013-02-16 21:34:00,
2013-02-16 13:39:00,66.6,26.5,29.85,North,1,3.0,6.0,22,0.00,CLR,,0.00,WeatherDisplay:10.37,2013-02-16 21:39:00,
2013-02-16 13:44:00,66.9,25.7,29.85,NNE,19,3.0,5.0,21,0.00,CLR,,0.00,WeatherDisplay:10.37,2013-02-16 21:44:00,
2013-02-16 13:49:00,66.9,24.5,29.85,NNE,33,3.0,5.0,20,0.00,CLR,,0.00,WeatherDisplay:10.37,2013-02-16 21:49:00,
2013-02-16 13:54:00,66.6,24.2,29.85,NE,51,3.0,5.0,20,0.00,CLR,,0.00,WeatherDisplay:10.37,2013-02-16 21:54:00,
2013-02-16 13:59:00,66.9,24.5,29.85,NNE,24,1.0,5.0,20,0.00,CLR,,0.00,WeatherDisplay:10.37,2013-02-16 21:59:00,
2013-02-16 14:04:00,67.6,25.0,29.85,North,351,3.0,6.0,20,0.00,CLR,,0.00,WeatherDisplay:10.37,2013-02-16 22:04:00,
2013-02-16 14:09:00,67.7,25.1,29.85,North,358,1.0,6.0,20,0.00,CLR,,0.00,WeatherDisplay:10.37,2013-02-16 22:09:00,
2013-02-16 14:14:00,67.7,25.1,29.85,North,11,3.0,6.0,20,0.00,CLR,,0.00,WeatherDisplay:10.37,2013-02-16 22:14:00,
2013-02-16 14:19:00,67.5,24.9,29.85,NNE,12,2.0,5.0,20,0.00,CLR,,0.00,WeatherDisplay:10.37,2013-02-16 22:19:00,
2013-02-16 14:24:00,67.3,24.8,29.85,North,356,3.0,7.0,20,0.00,CLR,,0.00,WeatherDisplay:10.37,2013-02-16 22:24:00,
2013-02-16 14:34:00,67.8,24.0,29.83,NE,35,1.0,6.0,19,0.00,CLR,,0.00,WeatherDisplay:10.37,2013-02-16 22:34:00,
2013-02-16 14:39:00,67.8,24.0,29.83,NE,34,2.0,5.0,19,0.00,CLR,,0.00,WeatherDisplay:10.37,2013-02-16 22:39:00,
2013-02-16 14:44:00,67.5,24.9,29.83,NNE,32,1.0,5.0,20,0.00,CLR,,0.00,WeatherDisplay:10.37,2013-02-16 22:44:00,
2013-02-16 14:49:00,67.3,24.8,29.83,North,10,1.0,5.0,20,0.00,CLR,,0.00,WeatherDisplay:10.37,2013-02-16 22:49:00,
2013-02-16 14:54:00,67.2,24.7,29.83,NNW,339,1.0,4.0,20,0.00,CLR,,0.00,WeatherDisplay:10.37,2013-02-16 22:54:00,
2013-02-16 14:59:00,67.3,24.8,29.83,NNW,345,3.0,5.0,20,0.00,CLR,,0.00,WeatherDisplay:10.37,2013-02-16 22:59:00,
2013-02-16 15:04:00,67.5,24.9,29.83,NNE,12,3.0,5.0,20,0.00,CLR,,0.00,WeatherDisplay:10.37,2013-02-16 23:04:00,
2013-02-16 15:09:00,67.3,24.8,29.83,North,1,2.0,5.0,20,0.00,CLR,,0.00,WeatherDisplay:10.37,2013-02-16 23:09:00,
2013-02-16 15:14:00,67.1,24.6,29.83,North,2,0.0,6.0,20,0.00,CLR,,0.00,WeatherDisplay:10.37,2013-02-16 23:14:00,
2013-02-16 15:19:00,67.1,24.6,29.83,North,360,1.0,5.0,20,0.00,CLR,,0.00,WeatherDisplay:10.37,2013-02-16 23:19:00,
2013-02-16 15:24:00,67.1,24.6,29.83,NNW,338,1.0,5.0,20,0.00,CLR,,0.00,WeatherDisplay:10.37,2013-02-16 23:24:00,
2013-02-16 15:29:00,67.3,24.8,29.83,NNW,347,3.0,6.0,20,0.00,CLR,,0.00,WeatherDisplay:10.37,2013-02-16 23:29:00,
2013-02-16 15:34:00,66.7,24.3,29.83,North,359,3.0,6.0,20,0.00,CLR,,0.00,WeatherDisplay:10.37,2013-02-16 23:34:00,
2013-02-16 15:39:00,66.7,24.3,29.83,North,10,3.0,5.0,20,0.00,CLR,,0.00,WeatherDisplay:10.37,2013-02-16 23:39:00,
2013-02-16 15:44:00,66.6,24.2,29.83,North,9,2.0,5.0,20,0.00,CLR,,0.00,WeatherDisplay:10.37,2013-02-16 23:44:00,
2013-02-16 15:49:00,66.0,23.8,29.83,North,358,1.0,5.0,20,0.00,CLR,,0.00,WeatherDisplay:10.37,2013-02-16 23:49:00,
2013-02-16 15:54:00,65.8,23.6,29.83,NW,320,0.0,6.0,20,0.00,CLR,,0.00,WeatherDisplay:10.37,2013-02-16 23:54:00,
2013-02-16 15:59:00,65.7,23.5,29.83,West,268,1.0,5.0,20,0.00,CLR,,0.00,WeatherDisplay:10.37,2013-02-16 23:59:00,
2013-02-16 16:04:00,65.3,25.4,29.83,West,263,1.0,5.0,22,0.00,CLR,,0.00,WeatherDisplay:10.37,2013-02-17 00:04:00,
2013-02-16 16:09:00,64.5,24.7,29.83,NW,320,0.0,4.0,22,0.00,CLR,,0.00,WeatherDisplay:10.37,2013-02-17 00:09:00,
2013-02-16 16:19:00,62.6,24.3,29.83,WNW,285,3.0,6.0,23,0.00,CLR,,0.00,WeatherDisplay:10.37,2013-02-17 00:19:00,
2013-02-16 16:24:00,62.2,25.0,29.83,West,276,2.0,5.0,24,0.00,CLR,,0.00,WeatherDisplay:10.37,2013-02-17 00:24:00,
2013-02-16 16:29:00,61.5,24.3,29.83,NW,316,0.0,4.0,24,0.00,CLR,,0.00,WeatherDisplay:10.37,2013-02-17 00:29:00,
2013-02-16 16:34:00,61.2,24.0,29.83,NNW,329,1.0,4.0,24,0.00,CLR,,0.00,WeatherDisplay:10.37,2013-02-17 00:34:00,
2013-02-16 16:39:00,60.6,23.6,29.83,WNW,282,1.0,4.0,24,0.00,CLR,,0.00,WeatherDisplay:10.37,2013-02-17 00:39:00,
2013-02-16 16:44:00,60.4,24.4,29.83,West,260,2.0,6.0,25,0.00,CLR,,0.00,WeatherDisplay:10.37,2013-02-17 00:44:00,
2013-02-16 16:49:00,59.7,23.7,29.83,WSW,255,5.0,8.0,25,0.00,CLR,,0.00,WeatherDisplay:10.37,2013-02-17 00:49:00,
2013-02-16 16:54:00,58.8,24.0,29.83,West,262,3.0,8.0,26,0.00,CLR,,0.00,WeatherDisplay:10.37,2013-02-17 00:54:00,
2013-02-16 16:59:00,58.0,25.0,29.80,West,260,1.0,6.0,28,0.00,CLR,,0.00,WeatherDisplay:10.37,2013-02-17 00:59:00,
2013-02-16 17:04:00,57.4,26.2,29.80,SW,223,1.0,6.0,30,0.00,CLR,,0.00,WeatherDisplay:10.37,2013-02-17 01:04:00,
2013-02-16 17:09:00,56.8,27.3,29.80,ESE,119,2.0,5.0,32,0.00,CLR,,0.00,WeatherDisplay:10.37,2013-02-17 01:09:00,
2013-02-16 17:19:00,55.8,28.5,29.80,SE,130,1.0,6.0,35,0.00,CLR,,0.00,WeatherDisplay:10.37,2013-02-17 01:19:00,
2013-02-16 17:24:00,55.8,27.8,29.80,ESE,113,0.0,3.0,34,0.00,CLR,,0.00,WeatherDisplay:10.37,2013-02-17 01:24:00,
2013-02-16 17:29:00,55.6,27.6,29.80,ENE,59,0.0,5.0,34,0.00,CLR,,0.00,WeatherDisplay:10.37,2013-02-17 01:29:00,
2013-02-16 17:34:00,55.2,27.3,29.80,ENE,68,0.0,0.0,34,0.00,CLR,,0.00,WeatherDisplay:10.37,2013-02-17 01:34:00,
2013-02-16 17:39:00,54.9,27.7,29.80,East,89,0.0,5.0,35,0.00,CLR,,0.00,WeatherDisplay:10.37,2013-02-17 01:39:00,
2013-02-16 17:44:00,54.9,28.4,29.80,East,98,2.0,5.0,36,0.00,CLR,,0.00,WeatherDisplay:10.37,2013-02-17 01:44:00,
2013-02-16 17:49:00,54.4,27.3,29.80,ESE,108,0.0,4.0,35,0.00,CLR,,0.00,WeatherDisplay:10.37,2013-02-17 01:49:00,
2013-02-16 17:59:00,53.5,27.2,29.80,East,98,3.0,6.0,36,0.00,CLR,,0.00,WeatherDisplay:10.37,2013-02-17 01:59:00,
2013-02-16 18:04:00,52.9,27.9,29.80,East,94,3.0,6.0,38,0.00,CLR,,0.00,WeatherDisplay:10.37,2013-02-17 02:04:00,
2013-02-16 18:09:00,52.3,28.7,29.80,ESE,102,3.0,9.0,40,0.00,CLR,,0.00,WeatherDisplay:10.37,2013-02-17 02:09:00,
2013-02-16 18:14:00,52.2,27.9,29.80,ESE,107,3.0,6.0,39,0.00,CLR,,0.00,WeatherDisplay:10.37,2013-02-17 02:14:00,
2013-02-16 18:19:00,51.6,29.3,29.80,East,94,3.0,6.0,42,0.00,CLR,,0.00,WeatherDisplay:10.37,2013-02-17 02:19:00,
2013-02-16 18:24:00,51.4,28.5,29.80,East,87,2.0,5.0,41,0.00,CLR,,0.00,WeatherDisplay:10.37,2013-02-17 02:24:00,
2013-02-16 18:29:00,51.1,28.8,29.83,East,89,1.0,5.0,42,0.00,CLR,,0.00,WeatherDisplay:10.37,2013-02-17 02:29:00,
2013-02-16 18:34:00,50.9,28.0,29.83,East,90,0.0,5.0,41,0.00,CLR,,0.00,WeatherDisplay:10.37,2013-02-17 02:34:00,
2013-02-16 18:39:00,50.5,27.1,29.83,ENE,73,2.0,5.0,40,0.00,CLR,,0.00,WeatherDisplay:10.37,2013-02-17 02:39:00,
2013-02-16 18:44:00,50.5,27.0,29.80,NE,50,0.0,3.0,40,0.00,CLR,,0.00,WeatherDisplay:10.37,2013-02-17 02:44:00,
2013-02-16 18:49:00,50.4,29.8,29.80,East,85,1.0,5.0,45,0.00,CLR,,0.00,WeatherDisplay:10.37,2013-02-17 02:49:00,
2013-02-16 18:54:00,50.2,28.5,29.80,ESE,112,0.0,0.0,43,0.00,CLR,,0.00,WeatherDisplay:10.37,2013-02-17 02:54:00,
2013-02-16 18:59:00,49.8,27.6,29.80,ESE,112,0.0,3.0,42,0.00,CLR,,0.00,WeatherDisplay:10.37,2013-02-17 02:59:00,
2013-02-16 19:04:00,50.0,28.9,29.80,East,96,1.0,5.0,44,0.00,CLR,,0.00,WeatherDisplay:10.37,2013-02-17 03:04:00,
2013-02-16 19:09:00,50.1,28.4,29.80,NE,39,1.0,5.0,43,0.00,CLR,,0.00,WeatherDisplay:10.37,2013-02-17 03:09:00,
2013-02-16 19:14:00,50.0,28.4,29.80,NNE,22,0.0,3.0,43,0.00,CLR,,0.00,WeatherDisplay:10.37,2013-02-17 03:14:00,
2013-02-16 19:19:00,49.8,28.8,29.80,NNE,26,0.0,6.0,44,0.00,CLR,,0.00,WeatherDisplay:10.37,2013-02-17 03:19:00,
2013-02-16 19:24:00,49.6,30.7,29.80,East,84,3.0,5.0,48,0.00,CLR,,0.00,WeatherDisplay:10.37,2013-02-17 03:24:00,
2013-02-16 19:29:00,49.6,30.2,29.80,East,94,3.0,6.0,47,0.00,CLR,,0.00,WeatherDisplay:10.37,2013-02-17 03:29:00,
2013-02-16 19:34:00,49.5,30.6,29.80,East,87,2.0,5.0,48,0.00,CLR,,0.00,WeatherDisplay:10.37,2013-02-17 03:34:00,
2013-02-16 19:44:00,48.7,29.4,29.80,ESE,112,0.0,0.0,47,0.00,CLR,,0.00,WeatherDisplay:10.37,2013-02-17 03:44:00,
2013-02-16 19:49:00,48.6,29.7,29.80,ESE,112,0.0,5.0,48,0.00,CLR,,0.00,WeatherDisplay:10.37,2013-02-17 03:49:00,
2013-02-16 19:54:00,48.5,30.2,29.80,ESE,112,0.0,0.0,49,0.00,CLR,,0.00,WeatherDisplay:10.37,2013-02-17 03:54:00,
2013-02-16 19:59:00,48.7,30.3,29.80,East,93,5.0,6.0,49,0.00,CLR,,0.00,WeatherDisplay:10.37,2013-02-17 03:59:00,
2013-02-16 20:04:00,48.9,31.0,29.80,ENE,63,5.0,6.0,50,0.00,CLR,,0.00,WeatherDisplay:10.37,2013-02-17 04:04:00,
2013-02-16 20:09:00,48.6,31.8,29.80,East,95,0.0,3.0,52,0.00,CLR,,0.00,WeatherDisplay:10.37,2013-02-17 04:09:00,
2013-02-16 20:19:00,48.4,31.5,29.80,East,100,0.0,5.0,52,0.00,CLR,,0.00,WeatherDisplay:10.37,2013-02-17 04:19:00,
2013-02-16 20:24:00,48.2,31.9,29.80,ESE,110,0.0,6.0,53,0.00,CLR,,0.00,WeatherDisplay:10.37,2013-02-17 04:24:00,
2013-02-16 20:29:00,48.2,32.3,29.83,East,95,3.0,6.0,54,0.00,CLR,,0.00,WeatherDisplay:10.37,2013-02-17 04:29:00,
2013-02-16 20:34:00,48.0,31.7,29.83,East,80,3.0,6.0,53,0.00,CLR,,0.00,WeatherDisplay:10.37,2013-02-17 04:34:00,
2013-02-16 20:39:00,48.0,32.2,29.83,ENE,69,1.0,6.0,54,0.00,CLR,,0.00,WeatherDisplay:10.37,2013-02-17 04:39:00,
2013-02-16 20:49:00,47.7,32.3,29.80,East,87,1.0,5.0,55,0.00,CLR,,0.00,WeatherDisplay:10.37,2013-02-17 04:49:00,
2013-02-16 20:54:00,47.7,31.4,29.80,ENE,69,5.0,6.0,53,0.00,CLR,,0.00,WeatherDisplay:10.37,2013-02-17 04:54:00,
2013-02-16 21:04:00,47.5,31.2,29.80,NNE,22,0.0,5.0,53,0.00,CLR,,0.00,WeatherDisplay:10.37,2013-02-17 05:04:00,
2013-02-16 21:09:00,47.5,31.2,29.80,ENE,65,5.0,8.0,53,0.00,CLR,,0.00,WeatherDisplay:10.37,2013-02-17 05:09:00,
2013-02-16 21:14:00,47.5,31.6,29.80,East,90,0.0,8.0,54,0.00,CLR,,0.00,WeatherDisplay:10.37,2013-02-17 05:14:00,
2013-02-16 21:19:00,47.5,31.6,29.80,ENE,72,3.0,7.0,54,0.00,CLR,,0.00,WeatherDisplay:10.37,2013-02-17 05:19:00,
2013-02-16 21:24:00,47.5,31.6,29.80,NE,34,1.0,5.0,54,0.00,CLR,,0.00,WeatherDisplay:10.37,2013-02-17 05:24:00,
2013-02-16 21:29:00,47.3,32.0,29.80,NE,35,1.0,5.0,55,0.00,CLR,,0.00,WeatherDisplay:10.37,2013-02-17 05:29:00,
2013-02-16 21:34:00,47.5,32.1,29.80,NE,55,3.0,5.0,55,0.00,CLR,,0.00,WeatherDisplay:10.37,2013-02-17 05:34:00,
2013-02-16 21:39:00,47.5,32.6,29.80,ENE,74,3.0,7.0,56,0.00,CLR,,0.00,WeatherDisplay:10.37,2013-02-17 05:39:00,
2013-02-16 21:44:00,47.3,32.4,29.80,NE,37,3.0,7.0,56,0.00,CLR,,0.00,WeatherDisplay:10.37,2013-02-17 05:44:00,
2013-02-16 21:49:00,47.1,31.8,29.80,NNE,20,1.0,5.0,55,0.00,CLR,,0.00,WeatherDisplay:10.37,2013-02-17 05:49:00,
2013-02-16 21:54:00,46.9,31.6,29.80,NNE,29,2.0,6.0,55,0.00,CLR,,0.00,WeatherDisplay:10.37,2013-02-17 05:54:00,
2013-02-16 21:59:00,47.1,32.2,29.80,NNE,25,2.0,8.0,56,0.00,CLR,,0.00,WeatherDisplay:10.37,2013-02-17 05:59:00,
2013-02-16 22:04:00,47.0,31.6,29.80,NNE,14,3.0,8.0,55,0.00,CLR,,0.00,WeatherDisplay:10.37,2013-02-17 06:04:00,
2013-02-16 22:09:00,46.9,31.6,29.80,NE,38,2.0,6.0,55,0.00,CLR,,0.00,WeatherDisplay:10.37,2013-02-17 06:09:00,
2013-02-16 22:14:00,46.9,32.0,29.80,ENE,67,0.0,5.0,56,0.00,CLR,,0.00,WeatherDisplay:10.37,2013-02-17 06:14:00,
2013-02-16 22:19:00,46.9,32.5,29.80,NE,54,2.0,5.0,57,0.00,CLR,,0.00,WeatherDisplay:10.37,2013-02-17 06:19:00,
2013-02-16 22:24:00,46.8,31.9,29.80,NNE,30,2.0,5.0,56,0.00,CLR,,0.00,WeatherDisplay:10.37,2013-02-17 06:24:00,
2013-02-16 22:29:00,46.8,31.9,29.80,NNE,24,0.0,5.0,56,0.00,CLR,,0.00,WeatherDisplay:10.37,2013-02-17 06:29:00,
2013-02-16 22:34:00,46.8,31.9,29.80,NE,40,2.0,6.0,56,0.00,CLR,,0.00,WeatherDisplay:10.37,2013-02-17 06:34:00,
2013-02-16 22:39:00,46.8,32.3,29.80,NE,34,1.0,6.0,57,0.00,CLR,,0.00,WeatherDisplay:10.37,2013-02-17 06:39:00,
2013-02-16 22:44:00,46.9,32.5,29.80,NNE,21,2.0,5.0,57,0.00,CLR,,0.00,WeatherDisplay:10.37,2013-02-17 06:44:00,
2013-02-16 22:49:00,47.1,32.2,29.80,NNE,21,3.0,5.0,56,0.00,CLR,,0.00,WeatherDisplay:10.37,2013-02-17 06:49:00,
2013-02-16 22:54:00,47.2,32.8,29.80,NNE,21,3.0,5.0,57,0.00,CLR,,0.00,WeatherDisplay:10.37,2013-02-17 06:54:00,
2013-02-16 22:59:00,47.3,32.8,29.80,NNE,28,1.0,6.0,57,0.00,CLR,,0.00,WeatherDisplay:10.37,2013-02-17 06:59:00,
2013-02-16 23:04:00,47.5,33.0,29.80,ENE,65,5.0,8.0,57,0.00,CLR,,0.00,WeatherDisplay:10.37,2013-02-17 07:04:00,
2013-02-16 23:09:00,47.6,34.0,29.80,ENE,61,2.0,6.0,59,0.00,CLR,,0.00,WeatherDisplay:10.37,2013-02-17 07:09:00,
2013-02-16 23:14:00,47.5,34.7,29.80,ENE,75,3.0,8.0,61,0.00,CLR,,0.00,WeatherDisplay:10.37,2013-02-17 07:14:00,
2013-02-16 23:19:00,47.3,34.5,29.80,East,93,1.0,6.0,61,0.00,CLR,,0.00,WeatherDisplay:10.37,2013-02-17 07:19:00,
2013-02-16 23:24:00,46.9,33.8,29.80,ENE,75,5.0,6.0,60,0.00,CLR,,0.00,WeatherDisplay:10.37,2013-02-17 07:24:00,
2013-02-16 23:29:00,46.8,33.6,29.80,ENE,65,2.0,6.0,60,0.00,CLR,,0.00,WeatherDisplay:10.37,2013-02-17 07:29:00,
2013-02-16 23:34:00,46.9,35.0,29.80,East,85,5.0,6.0,63,0.00,CLR,,0.00,WeatherDisplay:10.37,2013-02-17 07:34:00,
2013-02-16 23:39:00,46.9,34.9,29.80,ESE,102,3.0,6.0,63,0.00,CLR,,0.00,WeatherDisplay:10.37,2013-02-17 07:39:00,
2013-02-16 23:44:00,46.7,33.9,29.80,NW,318,3.0,9.0,61,0.00,CLR,,0.00,WeatherDisplay:10.37,2013-02-17 07:44:00,
2013-02-16 23:49:00,46.8,35.2,29.80,West,267,5.0,9.0,64,0.00,CLR,,0.00,WeatherDisplay:10.37,2013-02-17 07:49:00,
2013-02-16 23:59:00,46.8,36.8,29.80,WSW,249,6.0,8.0,68,0.00,CLR,,0.00,WeatherDisplay:10.37,2013-02-17 07:59:00,